Time;durP1;ratioP1;P1;durP2;ratioP2;P2;SDS_P1;SDS_P2;PMS_P1;PMS_P2;Temp;Humidity;BMP_temperature;BMP_pressure;BME280_temperature;BME280_humidity;BME280_pressure;Samples;Min_cycle;Max_cycle;Signal;HPM_P1;HPM_P2
2023/12/14 00:00:09;;;;;;;56.67;36.63;;;;;;;;;;5014009;28;20029;-60
2023/12/14 00:02:35;;;;;;;53.00;35.05;;;;;;;;;;5012581;28;20030;-59
2023/12/14 00:05:01;;;;;;;59.85;37.22;;;;;;;;;;5013865;28;20498;-59
2023/12/14 00:07:27;;;;;;;57.25;36.60;;;;;;;;;;5013968;28;20029;-59
2023/12/14 00:09:53;;;;;;;67.22;39.15;;;;;;;;;;5014119;28;20096;-59
2023/12/14 00:12:19;;;;;;;60.75;37.17;;;;;;;;;;5013971;28;20380;-59
2023/12/14 00:14:45;;;;;;;59.78;37.40;;;;;;;;;;5013556;28;20080;-59
2023/12/14 00:17:11;;;;;;;64.13;40.10;;;;;;;;;;5013801;28;20026;-60
2023/12/14 00:19:37;;;;;;;60.90;39.33;;;;;;;;;;5013786;28;20032;-60
2023/12/14 00:22:03;;;;;;;57.88;38.42;;;;;;;;;;5013584;28;20094;-60
2023/12/14 00:24:28;;;;;;;66.35;38.42;;;;;;;;;;5013605;28;20038;-59
2023/12/14 00:26:54;;;;;;;66.43;40.05;;;;;;;;;;5024789;28;20029;-59
2023/12/14 00:29:20;;;;;;;58.88;38.67;;;;;;;;;;5015864;28;20053;-59
2023/12/14 00:31:46;;;;;;;61.13;38.92;;;;;;;;;;5013418;28;20076;-59
2023/12/14 00:34:12;;;;;;;60.80;38.83;;;;;;;;;;5013185;28;20448;-59
2023/12/14 00:36:38;;;;;;;64.22;40.20;;;;;;;;;;5013487;28;20038;-59
2023/12/14 00:39:04;;;;;;;54.53;37.50;;;;;;;;;;5013397;28;20030;-59
2023/12/14 00:41:30;;;;;;;63.70;39.70;;;;;;;;;;5013243;28;20057;-59
2023/12/14 00:43:56;;;;;;;57.08;36.55;;;;;;;;;;5013277;28;20440;-60
2023/12/14 00:46:22;;;;;;;63.10;39.97;;;;;;;;;;5013049;28;20026;-59
2023/12/14 00:48:48;;;;;;;62.15;38.80;;;;;;;;;;5013189;28;20421;-59
2023/12/14 00:51:14;;;;;;;61.75;39.17;;;;;;;;;;5012989;28;20049;-59
2023/12/14 00:53:40;;;;;;;61.05;37.53;;;;;;;;;;5013057;28;20044;-59
2023/12/14 00:56:08;;;;;;;64.53;40.03;;;;;;;;;;5013055;28;20476;-60
2023/12/14 00:58:34;;;;;;;70.05;42.33;;;;;;;;;;4999419;28;20022;-60
2023/12/14 01:01:00;;;;;;;61.50;39.70;;;;;;;;;;5012990;28;20034;-60
2023/12/14 01:03:26;;;;;;;63.60;40.17;;;;;;;;;;5011418;28;20050;-60
2023/12/14 01:05:52;;;;;;;65.07;41.17;;;;;;;;;;5012782;28;20061;-61
2023/12/14 01:08:18;;;;;;;62.67;41.08;;;;;;;;;;5012948;28;20444;-60
2023/12/14 01:10:44;;;;;;;72.55;44.90;;;;;;;;;;5012808;28;20025;-60
2023/12/14 01:13:10;;;;;;;71.30;43.75;;;;;;;;;;5012683;28;20084;-60
2023/12/14 01:15:36;;;;;;;72.10;42.92;;;;;;;;;;5012619;28;20460;-60
2023/12/14 01:18:02;;;;;;;74.50;45.92;;;;;;;;;;5012814;28;20069;-60
2023/12/14 01:20:29;;;;;;;71.70;42.92;;;;;;;;;;5012694;28;20026;-60
2023/12/14 01:22:55;;;;;;;71.72;44.13;;;;;;;;;;5012489;28;20450;-60
2023/12/14 01:25:21;;;;;;;71.97;42.90;;;;;;;;;;5012516;28;20101;-60
2023/12/14 01:27:47;;;;;;;70.50;41.65;;;;;;;;;;5026567;28;20084;-60
2023/12/14 01:30:13;;;;;;;70.25;42.03;;;;;;;;;;5012524;28;20060;-60
2023/12/14 01:32:39;;;;;;;71.35;44.05;;;;;;;;;;5012133;28;20076;-60
2023/12/14 01:35:05;;;;;;;72.95;41.88;;;;;;;;;;5012194;28;20103;-60
2023/12/14 01:37:31;;;;;;;69.28;42.85;;;;;;;;;;5012284;28;20057;-60
2023/12/14 01:39:57;;;;;;;70.57;41.55;;;;;;;;;;5012631;28;20436;-59
2023/12/14 01:42:23;;;;;;;68.82;40.88;;;;;;;;;;5011818;28;20026;-59
2023/12/14 01:44:49;;;;;;;69.95;43.20;;;;;;;;;;5011697;28;20069;-60
2023/12/14 01:47:15;;;;;;;67.18;42.15;;;;;;;;;;5012320;28;20057;-60
2023/12/14 01:49:41;;;;;;;70.88;42.13;;;;;;;;;;5011184;28;20480;-59
2023/12/14 01:52:07;;;;;;;66.05;42.13;;;;;;;;;;5008987;28;20491;-59
2023/12/14 01:54:33;;;;;;;63.78;41.47;;;;;;;;;;5008652;28;20089;-59
2023/12/14 01:56:59;;;;;;;63.88;41.45;;;;;;;;;;5012221;28;20125;-59
2023/12/14 01:59:25;;;;;;;69.75;41.95;;;;;;;;;;5018023;28;20036;-59
2023/12/14 02:01:56;;;;;;;67.50;42.20;;;;;;;;;;5011339;28;20022;-60
2023/12/14 02:04:23;;;;;;;75.70;44.28;;;;;;;;;;5012073;28;20038;-59
2023/12/14 02:06:49;;;;;;;69.97;43.45;;;;;;;;;;5011921;28;20022;-60
2023/12/14 02:09:15;;;;;;;69.45;44.83;;;;;;;;;;5011988;28;20138;-61
2023/12/14 02:11:41;;;;;;;68.03;42.55;;;;;;;;;;5011988;28;20489;-60
2023/12/14 02:14:09;;;;;;;71.93;43.25;;;;;;;;;;5011018;28;20042;-60
2023/12/14 02:16:35;;;;;;;68.72;42.42;;;;;;;;;;5010943;28;20472;-60
2023/12/14 02:19:01;;;;;;;67.03;43.00;;;;;;;;;;5010407;28;20033;-60
2023/12/14 02:21:27;;;;;;;66.22;41.80;;;;;;;;;;5011852;28;20030;-60
2023/12/14 02:23:53;;;;;;;65.28;42.08;;;;;;;;;;5010476;28;20128;-60
2023/12/14 02:26:19;;;;;;;68.43;42.35;;;;;;;;;;5010422;28;20022;-60
2023/12/14 02:28:45;;;;;;;70.70;42.28;;;;;;;;;;5011891;28;20080;-60
2023/12/14 02:31:11;;;;;;;69.22;42.10;;;;;;;;;;5010529;28;20014;-60
2023/12/14 02:33:37;;;;;;;65.28;39.65;;;;;;;;;;5011748;28;20534;-60
2023/12/14 02:36:03;;;;;;;67.13;42.28;;;;;;;;;;5011636;28;20026;-60
2023/12/14 02:38:29;;;;;;;66.18;41.53;;;;;;;;;;5011612;28;20436;-60
2023/12/14 02:40:55;;;;;;;66.32;42.00;;;;;;;;;;5011611;28;20030;-60
2023/12/14 02:43:23;;;;;;;67.43;42.80;;;;;;;;;;5011527;28;20067;-60
2023/12/14 02:45:49;;;;;;;67.20;41.55;;;;;;;;;;5013344;28;20142;-60
2023/12/14 02:48:15;;;;;;;70.35;42.45;;;;;;;;;;5015430;28;20037;-60
2023/12/14 02:50:41;;;;;;;66.97;40.45;;;;;;;;;;5015665;28;20033;-60
2023/12/14 02:53:07;;;;;;;67.30;40.22;;;;;;;;;;5015341;28;20418;-60
2023/12/14 02:55:33;;;;;;;72.82;43.33;;;;;;;;;;5015272;28;20079;-60
2023/12/14 02:57:59;;;;;;;72.80;43.20;;;;;;;;;;5015245;28;20032;-60
2023/12/14 03:00:25;;;;;;;74.13;43.55;;;;;;;;;;5015333;28;20064;-59
2023/12/14 03:02:51;;;;;;;75.75;44.35;;;;;;;;;;5015112;28;20053;-60
2023/12/14 03:05:17;;;;;;;76.00;44.10;;;;;;;;;;5015055;28;20068;-59
2023/12/14 03:07:43;;;;;;;75.50;42.75;;;;;;;;;;5015369;28;20122;-59
2023/12/14 03:10:09;;;;;;;77.57;46.47;;;;;;;;;;5013649;28;20495;-60
2023/12/14 03:12:35;;;;;;;75.97;43.58;;;;;;;;;;5015010;28;20104;-59
2023/12/14 03:15:01;;;;;;;79.18;45.92;;;;;;;;;;5014912;28;20462;-59
2023/12/14 03:17:27;;;;;;;88.82;49.90;;;;;;;;;;5014856;28;20037;-60
2023/12/14 03:19:53;;;;;;;79.82;46.35;;;;;;;;;;5015020;28;20157;-59
2023/12/14 03:22:19;;;;;;;85.68;47.53;;;;;;;;;;5014788;28;20190;-59
2023/12/14 03:24:45;;;;;;;80.45;46.90;;;;;;;;;;5014704;28;20038;-59
2023/12/14 03:27:11;;;;;;;85.07;47.78;;;;;;;;;;5014709;28;20030;-60
2023/12/14 03:29:37;;;;;;;84.28;47.65;;;;;;;;;;5014650;28;20372;-59
2023/12/14 03:32:03;;;;;;;91.07;50.10;;;;;;;;;;5014624;28;20073;-60
2023/12/14 03:34:29;;;;;;;81.65;47.92;;;;;;;;;;5015164;28;20053;-59
2023/12/14 03:36:55;;;;;;;83.03;46.97;;;;;;;;;;5027453;28;20042;-59
2023/12/14 03:39:21;;;;;;;85.82;49.22;;;;;;;;;;5013823;28;20026;-60
2023/12/14 03:41:47;;;;;;;86.65;48.47;;;;;;;;;;5014128;28;20025;-59
2023/12/14 03:44:13;;;;;;;84.65;47.95;;;;;;;;;;5014248;28;20522;-60
2023/12/14 03:46:39;;;;;;;83.53;46.28;;;;;;;;;;5027078;28;20026;-60
2023/12/14 03:49:05;;;;;;;80.00;45.90;;;;;;;;;;5015691;28;20026;-58
2023/12/14 03:51:31;;;;;;;83.47;47.40;;;;;;;;;;5014115;28;20050;-59
2023/12/14 03:53:57;;;;;;;78.53;46.45;;;;;;;;;;5014282;28;20105;-59
2023/12/14 03:56:23;;;;;;;89.40;49.20;;;;;;;;;;5013779;28;20033;-59
2023/12/14 03:58:49;;;;;;;81.97;46.83;;;;;;;;;;5014282;28;20076;-59
2023/12/14 04:01:19;;;;;;;84.78;49.40;;;;;;;;;;5014324;28;20021;-59
2023/12/14 04:03:45;;;;;;;81.28;47.03;;;;;;;;;;5000524;28;20108;-59
2023/12/14 04:06:14;;;;;;;81.50;46.53;;;;;;;;;;5013879;28;20026;-59
2023/12/14 04:08:41;;;;;;;82.93;47.25;;;;;;;;;;5013960;28;20049;-59
2023/12/14 04:11:07;;;;;;;85.07;47.92;;;;;;;;;;5013905;28;20384;-59
2023/12/14 04:13:33;;;;;;;81.72;46.65;;;;;;;;;;5013608;28;20026;-59
2023/12/14 04:15:59;;;;;;;83.63;47.20;;;;;;;;;;5013640;28;20406;-60
2023/12/14 04:18:25;;;;;;;85.07;46.63;;;;;;;;;;5013689;28;20081;-59
2023/12/14 04:20:51;;;;;;;81.82;47.03;;;;;;;;;;5013956;28;20345;-60
2023/12/14 04:23:18;;;;;;;94.60;51.92;;;;;;;;;;5013529;28;20061;-60
2023/12/14 04:25:44;;;;;;;85.50;50.70;;;;;;;;;;5013559;28;20018;-59
2023/12/14 04:28:10;;;;;;;81.22;45.22;;;;;;;;;;5013902;28;20372;-60
2023/12/14 04:30:36;;;;;;;80.90;46.45;;;;;;;;;;5013535;28;20088;-60
2023/12/14 04:33:02;;;;;;;83.32;46.85;;;;;;;;;;5013443;28;20022;-60
2023/12/14 04:35:28;;;;;;;81.25;47.28;;;;;;;;;;5013379;28;20106;-60
2023/12/14 04:37:54;;;;;;;87.68;47.67;;;;;;;;;;5013712;28;20022;-60
2023/12/14 04:40:20;;;;;;;88.28;50.08;;;;;;;;;;5013446;28;20037;-59
2023/12/14 04:42:46;;;;;;;88.63;49.75;;;;;;;;;;5013117;28;20036;-60
2023/12/14 04:45:12;;;;;;;81.28;46.67;;;;;;;;;;5013527;28;20075;-60
2023/12/14 04:47:39;;;;;;;83.43;46.50;;;;;;;;;;5013290;28;20021;-60
2023/12/14 04:50:06;;;;;;;85.18;46.92;;;;;;;;;;5013208;28;20376;-60
2023/12/14 04:52:32;;;;;;;87.70;49.40;;;;;;;;;;5013140;28;20030;-60
2023/12/14 04:54:58;;;;;;;88.03;46.63;;;;;;;;;;5011793;28;20098;-60
2023/12/14 04:57:25;;;;;;;81.00;47.35;;;;;;;;;;5013138;28;20037;-60
2023/12/14 04:59:51;;;;;;;82.88;45.83;;;;;;;;;;5011720;28;20053;-61
2023/12/14 05:02:16;;;;;;;82.55;47.60;;;;;;;;;;5011662;28;20530;-60
2023/12/14 05:04:42;;;;;;;83.15;46.63;;;;;;;;;;5012737;28;20041;-60
2023/12/14 05:07:08;;;;;;;85.63;46.75;;;;;;;;;;5004650;28;20049;-60
2023/12/14 05:09:34;;;;;;;85.05;47.83;;;;;;;;;;5012184;28;20033;-60
2023/12/14 05:12:00;;;;;;;84.85;46.53;;;;;;;;;;5013095;28;20080;-60
2023/12/14 05:14:28;;;;;;;82.63;45.92;;;;;;;;;;5012717;28;20480;-60
2023/12/14 05:16:54;;;;;;;80.68;46.50;;;;;;;;;;5012648;28;20022;-60
2023/12/14 05:19:20;;;;;;;80.78;45.03;;;;;;;;;;5012795;28;20026;-60
2023/12/14 05:21:46;;;;;;;78.32;44.47;;;;;;;;;;5012608;28;20049;-60
2023/12/14 05:24:12;;;;;;;71.20;41.22;;;;;;;;;;5012618;28;20037;-59
2023/12/14 05:26:38;;;;;;;74.75;42.70;;;;;;;;;;5012711;28;20022;-59
2023/12/14 05:29:04;;;;;;;70.05;41.03;;;;;;;;;;5011239;28;20026;-60
2023/12/14 05:31:30;;;;;;;69.40;41.92;;;;;;;;;;5012527;28;20037;-60
2023/12/14 05:33:56;;;;;;;70.35;40.60;;;;;;;;;;5012633;28;20075;-60
2023/12/14 05:36:22;;;;;;;65.35;38.28;;;;;;;;;;5012387;28;20129;-60
2023/12/14 05:38:48;;;;;;;66.90;39.22;;;;;;;;;;5012526;28;20022;-59
2023/12/14 05:41:14;;;;;;;66.18;38.60;;;;;;;;;;5012657;28;20018;-60
2023/12/14 05:43:40;;;;;;;58.72;35.38;;;;;;;;;;5012082;28;20041;-60
2023/12/14 05:46:06;;;;;;;67.95;38.38;;;;;;;;;;5012297;28;20022;-59
2023/12/14 05:48:32;;;;;;;66.13;36.95;;;;;;;;;;5012261;28;20026;-60
2023/12/14 05:50:58;;;;;;;68.10;39.03;;;;;;;;;;5012195;28;20026;-60
2023/12/14 05:53:24;;;;;;;64.05;38.25;;;;;;;;;;5012155;28;20026;-60
2023/12/14 05:55:50;;;;;;;61.88;34.83;;;;;;;;;;5012334;28;20080;-60
2023/12/14 05:58:16;;;;;;;66.13;38.25;;;;;;;;;;5012075;28;20482;-59
2023/12/14 06:00:42;;;;;;;65.68;37.45;;;;;;;;;;5012108;28;20029;-60
2023/12/14 06:03:08;;;;;;;69.38;39.95;;;;;;;;;;5011999;28;20045;-59
2023/12/14 06:05:52;;;;;;;66.60;38.72;;;;;;;;;;5011995;28;20022;-59
2023/12/14 06:08:18;;;;;;;71.15;40.58;;;;;;;;;;5012156;28;20452;-59
2023/12/14 06:10:44;;;;;;;70.18;39.25;;;;;;;;;;5011983;28;20022;-59
2023/12/14 06:13:10;;;;;;;66.22;38.05;;;;;;;;;;5011728;28;20033;-59
2023/12/14 06:15:36;;;;;;;70.47;40.15;;;;;;;;;;5011916;28;20076;-60
2023/12/14 06:18:04;;;;;;;67.75;38.08;;;;;;;;;;5012095;28;20526;-60
2023/12/14 06:20:30;;;;;;;69.07;39.33;;;;;;;;;;5013284;28;20109;-60
2023/12/14 06:22:56;;;;;;;65.20;36.55;;;;;;;;;;5015877;28;20065;-60
2023/12/14 06:25:22;;;;;;;59.80;35.35;;;;;;;;;;5015847;28;20041;-60
2023/12/14 06:27:49;;;;;;;62.50;37.60;;;;;;;;;;5015882;28;20413;-60
2023/12/14 06:30:15;;;;;;;57.17;35.42;;;;;;;;;;5015728;28;20025;-60
2023/12/14 06:32:41;;;;;;;54.38;33.33;;;;;;;;;;5015869;28;20018;-60
2023/12/14 06:35:07;;;;;;;58.15;35.75;;;;;;;;;;5004207;28;20045;-59
2023/12/14 06:37:33;;;;;;;58.92;35.03;;;;;;;;;;5012291;28;20105;-60
2023/12/14 06:39:59;;;;;;;55.67;34.13;;;;;;;;;;5012990;28;20576;-60
2023/12/14 06:42:27;;;;;;;58.15;33.88;;;;;;;;;;5016595;28;20034;-60
2023/12/14 06:44:53;;;;;;;51.35;32.33;;;;;;;;;;5013254;28;20038;-59
2023/12/14 06:47:19;;;;;;;49.70;32.65;;;;;;;;;;5013263;28;20463;-59
2023/12/14 06:49:45;;;;;;;51.58;32.15;;;;;;;;;;5012829;28;20113;-60
2023/12/14 06:52:11;;;;;;;60.00;35.97;;;;;;;;;;5015252;28;20029;-59
2023/12/14 06:54:37;;;;;;;63.55;36.05;;;;;;;;;;5015409;28;20152;-59
2023/12/14 06:57:03;;;;;;;62.33;36.58;;;;;;;;;;5015936;28;20029;-60
2023/12/14 06:59:29;;;;;;;65.20;39.50;;;;;;;;;;5028328;28;20066;-60
2023/12/14 07:01:55;;;;;;;64.40;37.70;;;;;;;;;;5015211;28;20462;-60
2023/12/14 07:04:21;;;;;;;65.10;37.85;;;;;;;;;;5015102;28;20053;-59
2023/12/14 07:06:51;;;;;;;63.92;36.75;;;;;;;;;;5025681;28;20030;-60
2023/12/14 07:09:17;;;;;;;60.65;36.70;;;;;;;;;;5017787;28;20440;-60
2023/12/14 07:11:44;;;;;;;61.08;35.47;;;;;;;;;;5014989;28;20022;-60
2023/12/14 07:14:09;;;;;;;63.90;36.53;;;;;;;;;;5014757;28;20067;-60
2023/12/14 07:16:35;;;;;;;57.67;35.65;;;;;;;;;;5014851;28;20095;-60
2023/12/14 07:19:01;;;;;;;54.25;33.08;;;;;;;;;;5015123;28;20028;-60
2023/12/14 07:21:27;;;;;;;57.10;33.33;;;;;;;;;;5014653;28;20030;-60
2023/12/14 07:23:53;;;;;;;56.10;33.47;;;;;;;;;;5025551;28;20570;-61
2023/12/14 07:26:19;;;;;;;52.22;32.70;;;;;;;;;;5017579;28;20100;-60
2023/12/14 07:28:45;;;;;;;52.67;31.27;;;;;;;;;;5014598;28;20032;-60
2023/12/14 07:31:11;;;;;;;51.65;31.23;;;;;;;;;;5004419;28;20081;-60
2023/12/14 07:33:37;;;;;;;54.42;32.08;;;;;;;;;;5013288;28;20116;-59
2023/12/14 07:36:05;;;;;;;49.30;31.73;;;;;;;;;;5014523;28;20451;-60
2023/12/14 07:38:31;;;;;;;48.20;30.67;;;;;;;;;;5014390;28;20135;-59
2023/12/14 07:40:57;;;;;;;53.83;32.45;;;;;;;;;;5014263;28;20025;-60
2023/12/14 07:43:24;;;;;;;49.00;31.52;;;;;;;;;;5013979;28;20026;-60
2023/12/14 07:45:49;;;;;;;47.33;31.00;;;;;;;;;;5014640;28;20388;-59
2023/12/14 07:48:16;;;;;;;52.30;33.10;;;;;;;;;;5014357;28;20022;-59
2023/12/14 07:50:41;;;;;;;53.95;32.63;;;;;;;;;;5014353;28;20025;-59
2023/12/14 07:53:07;;;;;;;52.25;33.78;;;;;;;;;;5014321;28;20384;-59
2023/12/14 07:55:34;;;;;;;54.30;33.05;;;;;;;;;;5013192;28;20154;-62
2023/12/14 07:58:00;;;;;;;57.20;32.47;;;;;;;;;;5024875;28;20028;-59
2023/12/14 08:00:25;;;;;;;54.60;32.42;;;;;;;;;;5017202;28;20033;-59
2023/12/14 08:02:51;;;;;;;53.38;32.38;;;;;;;;;;5013948;28;20037;-59
2023/12/14 08:05:17;;;;;;;56.70;35.00;;;;;;;;;;5014117;28;20033;-60
2023/12/14 08:07:44;;;;;;;58.92;35.90;;;;;;;;;;5014020;28;20021;-58
2023/12/14 08:10:10;;;;;;;55.15;35.10;;;;;;;;;;5014077;28;20030;-59
2023/12/14 08:12:36;;;;;;;54.38;33.08;;;;;;;;;;5007786;28;20476;-59
2023/12/14 08:15:02;;;;;;;57.75;34.30;;;;;;;;;;5013763;28;20057;-60
2023/12/14 08:17:28;;;;;;;59.60;35.75;;;;;;;;;;5013796;28;20421;-60
2023/12/14 08:19:54;;;;;;;53.55;33.90;;;;;;;;;;5014111;28;20026;-60
2023/12/14 08:22:21;;;;;;;56.47;34.40;;;;;;;;;;5011566;28;20152;-60
2023/12/14 08:24:48;;;;;;;51.45;33.78;;;;;;;;;;5013575;28;20072;-60
2023/12/14 08:27:14;;;;;;;54.25;31.85;;;;;;;;;;5013622;28;20081;-60
2023/12/14 08:29:40;;;;;;;53.00;32.05;;;;;;;;;;5012206;28;20053;-59
2023/12/14 08:32:06;;;;;;;54.75;32.67;;;;;;;;;;5013659;28;20026;-60
2023/12/14 08:34:32;;;;;;;50.55;31.15;;;;;;;;;;5013424;28;20125;-60
2023/12/14 08:36:58;;;;;;;50.22;31.20;;;;;;;;;;5012115;28;20033;-59
2023/12/14 08:39:24;;;;;;;56.55;34.25;;;;;;;;;;5013380;28;20080;-60
2023/12/14 08:41:50;;;;;;;56.33;33.05;;;;;;;;;;5013210;28;20363;-61
2023/12/14 08:44:16;;;;;;;51.33;33.13;;;;;;;;;;5012224;28;20041;-60
2023/12/14 08:46:43;;;;;;;56.92;32.75;;;;;;;;;;5013460;28;20097;-60
2023/12/14 08:49:10;;;;;;;53.13;33.50;;;;;;;;;;5013176;28;20045;-59
2023/12/14 08:51:36;;;;;;;60.75;36.28;;;;;;;;;;5013122;28;20022;-59
2023/12/14 08:54:02;;;;;;;52.15;33.33;;;;;;;;;;5013192;28;20052;-59
2023/12/14 08:56:28;;;;;;;52.88;33.28;;;;;;;;;;5013399;28;20033;-59
2023/12/14 08:58:54;;;;;;;55.53;34.67;;;;;;;;;;5027168;28;20113;-59
2023/12/14 09:01:21;;;;;;;54.03;33.35;;;;;;;;;;5012959;28;20108;-59
2023/12/14 09:03:47;;;;;;;56.53;36.63;;;;;;;;;;5012798;28;20067;-59
2023/12/14 09:06:14;;;;;;;59.50;37.25;;;;;;;;;;5012960;28;20041;-59
2023/12/14 09:08:40;;;;;;;63.55;40.20;;;;;;;;;;5012887;28;20026;-59
2023/12/14 09:11:07;;;;;;;67.40;40.35;;;;;;;;;;5012854;28;20411;-59
2023/12/14 09:13:32;;;;;;;62.55;39.35;;;;;;;;;;5012809;28;20029;-59
2023/12/14 09:15:58;;;;;;;63.33;38.90;;;;;;;;;;5012680;28;20050;-59
2023/12/14 09:18:24;;;;;;;64.20;39.22;;;;;;;;;;5012928;28;20080;-59
2023/12/14 09:20:50;;;;;;;64.93;39.00;;;;;;;;;;5011279;28;20040;-61
2023/12/14 09:23:17;;;;;;;54.15;34.05;;;;;;;;;;5012747;28;20022;-60
2023/12/14 09:25:44;;;;;;;58.50;36.78;;;;;;;;;;5011302;28;20049;-61
2023/12/14 09:28:10;;;;;;;56.78;34.83;;;;;;;;;;5012716;28;20022;-60
2023/12/14 09:30:36;;;;;;;61.58;34.67;;;;;;;;;;5012717;28;20384;-60
2023/12/14 09:33:03;;;;;;;56.58;35.50;;;;;;;;;;5012459;28;20068;-60
2023/12/14 09:35:29;;;;;;;57.08;34.38;;;;;;;;;;5012484;28;20017;-60
2023/12/14 09:37:56;;;;;;;56.80;32.33;;;;;;;;;;5012406;28;20112;-61
2023/12/14 09:40:22;;;;;;;55.03;34.40;;;;;;;;;;5012554;28;20022;-60
2023/12/14 09:42:49;;;;;;;62.28;35.60;;;;;;;;;;5012402;28;20026;-60
2023/12/14 09:45:17;;;;;;;56.67;33.17;;;;;;;;;;5012525;28;20030;-60
2023/12/14 09:47:43;;;;;;;56.78;33.47;;;;;;;;;;5012317;28;20349;-60
2023/12/14 09:50:09;;;;;;;66.97;38.97;;;;;;;;;;5012360;28;20052;-61
2023/12/14 09:52:35;;;;;;;61.13;34.88;;;;;;;;;;5012382;28;20060;-60
2023/12/14 09:55:03;;;;;;;64.63;37.55;;;;;;;;;;5011946;28;20022;-60
2023/12/14 09:57:29;;;;;;;61.92;37.03;;;;;;;;;;5018864;28;20029;-60
2023/12/14 09:59:56;;;;;;;69.38;39.58;;;;;;;;;;5019559;28;20026;-60
2023/12/14 10:02:27;;;;;;;67.25;39.17;;;;;;;;;;5010924;28;20447;-59
2023/12/14 10:04:53;;;;;;;68.55;39.92;;;;;;;;;;5011897;28;20128;-60
2023/12/14 10:07:20;;;;;;;67.72;39.75;;;;;;;;;;5012150;28;20097;-61
2023/12/14 10:09:46;;;;;;;68.38;40.47;;;;;;;;;;5012049;28;20033;-60
2023/12/14 10:12:12;;;;;;;63.63;39.70;;;;;;;;;;5012081;28;20093;-60
2023/12/14 10:14:38;;;;;;;66.28;41.63;;;;;;;;;;5011789;28;20042;-60
2023/12/14 10:17:16;;;;;;;64.05;40.58;;;;;;;;;;5012188;28;20133;-60
2023/12/14 10:19:46;;;;;;;67.05;41.38;;;;;;;;;;5011984;28;20104;-60
2023/12/14 10:22:15;;;;;;;59.67;39.92;;;;;;;;;;5012046;28;20097;-60
2023/12/14 10:24:43;;;;;;;67.57;41.13;;;;;;;;;;5011851;28;20107;-60
2023/12/14 10:27:09;;;;;;;69.65;42.72;;;;;;;;;;5011957;28;20479;-60
2023/12/14 10:29:35;;;;;;;64.00;39.40;;;;;;;;;;5011907;28;20101;-60
2023/12/14 10:32:03;;;;;;;63.55;39.45;;;;;;;;;;5011793;28;20022;-60
2023/12/14 10:34:29;;;;;;;66.28;40.83;;;;;;;;;;5011797;28;20046;-60
2023/12/14 10:36:55;;;;;;;61.67;39.80;;;;;;;;;;5011653;28;20054;-60
2023/12/14 10:39:21;;;;;;;69.38;41.92;;;;;;;;;;5011888;28;20022;-60
2023/12/14 10:41:51;;;;;;;60.30;40.38;;;;;;;;;;5011687;28;20101;-60
2023/12/14 10:44:17;;;;;;;68.47;41.53;;;;;;;;;;5011649;28;20118;-60
2023/12/14 10:46:47;;;;;;;63.05;39.97;;;;;;;;;;5011558;28;20029;-60
2023/12/14 10:49:13;;;;;;;62.65;39.63;;;;;;;;;;5011730;28;20446;-61
2023/12/14 10:51:42;;;;;;;65.22;40.35;;;;;;;;;;5011493;28;20464;-59
2023/12/14 10:54:08;;;;;;;60.05;40.63;;;;;;;;;;5011570;28;20072;-60
2023/12/14 10:56:34;;;;;;;63.63;39.85;;;;;;;;;;5010222;28;20139;-60
2023/12/14 10:59:02;;;;;;;62.58;40.28;;;;;;;;;;5024157;28;20518;-60
2023/12/14 11:01:29;;;;;;;64.00;40.42;;;;;;;;;;5011565;28;20168;-60
2023/12/14 11:03:56;;;;;;;54.80;37.30;;;;;;;;;;5011179;28;20021;-60
2023/12/14 11:06:31;;;;;;;60.00;37.17;;;;;;;;;;5012149;28;20030;-60
2023/12/14 11:08:57;;;;;;;;;;;;;;;;;;5015675;28;20205;-60
2023/12/14 11:11:23;;;;;;;56.70;37.03;;;;;;;;;;5015261;28;20290;-60
2023/12/14 11:13:53;;;;;;;57.60;38.15;;;;;;;;;;5014831;28;20026;-60
2023/12/14 11:16:22;;;;;;;53.85;35.83;;;;;;;;;;5015169;28;20030;-60
2023/12/14 11:18:49;;;;;;;58.53;39.25;;;;;;;;;;5015180;28;20041;-61
2023/12/14 11:21:24;;;;;;;61.90;37.30;;;;;;;;;;5014962;28;20018;-60
2023/12/14 11:23:51;;;;;;;57.30;37.88;;;;;;;;;;5011645;28;20125;-59
2023/12/14 11:26:28;;;;;;;57.55;37.15;;;;;;;;;;5012798;28;20026;-60
2023/12/14 11:28:54;;;;;;;60.55;37.80;;;;;;;;;;5014966;28;20502;-60
2023/12/14 11:31:22;;;;;;;58.83;39.08;;;;;;;;;;5015812;28;20027;-60
2023/12/14 11:33:48;;;;;;;61.58;39.63;;;;;;;;;;5013239;28;20034;-60
2023/12/14 11:36:14;;;;;;;56.72;38.75;;;;;;;;;;5014323;28;20105;-60
2023/12/14 11:38:40;;;;;;;58.72;39.13;;;;;;;;;;5012856;28;20026;-60
2023/12/14 11:41:07;;;;;;;56.67;38.38;;;;;;;;;;5014651;28;20030;-60
2023/12/14 11:43:44;;;;;;;57.72;38.92;;;;;;;;;;5019106;28;20026;-58
2023/12/14 11:46:11;;;;;;;51.67;36.65;;;;;;;;;;5006021;28;20046;-60
2023/12/14 11:48:37;;;;;;;58.20;36.53;;;;;;;;;;5014281;28;20450;-60
2023/12/14 11:51:03;;;;;;;51.88;36.70;;;;;;;;;;5018060;28;20021;-60
2023/12/14 11:53:30;;;;;;;57.85;39.45;;;;;;;;;;5024578;28;20033;-59
2023/12/14 11:55:56;;;;;;;61.65;39.25;;;;;;;;;;5014080;28;20029;-60
2023/12/14 11:58:25;;;;;;;55.85;38.17;;;;;;;;;;5014278;28;20028;-60
2023/12/14 12:00:51;;;;;;;54.42;37.95;;;;;;;;;;5014112;28;20033;-58
2023/12/14 12:03:19;;;;;;;58.22;37.03;;;;;;;;;;5014055;28;20030;-60
2023/12/14 12:05:45;;;;;;;57.03;37.90;;;;;;;;;;5014091;28;20022;-60
2023/12/14 12:08:12;;;;;;;53.80;37.42;;;;;;;;;;5018317;28;20491;-60
2023/12/14 12:10:39;;;;;;;59.70;39.30;;;;;;;;;;5022105;28;20025;-60
2023/12/14 12:13:06;;;;;;;60.67;38.80;;;;;;;;;;5013874;28;20037;-59
2023/12/14 12:15:35;;;;;;;60.28;39.47;;;;;;;;;;5013925;28;20474;-60
2023/12/14 12:18:02;;;;;;;60.40;38.70;;;;;;;;;;5013542;28;20022;-60
2023/12/14 12:20:28;;;;;;;53.47;36.50;;;;;;;;;;5013814;28;20089;-59
2023/12/14 12:22:54;;;;;;;58.15;38.25;;;;;;;;;;5013789;28;20151;-60
2023/12/14 12:25:20;;;;;;;54.92;36.83;;;;;;;;;;5012128;28;20048;-59
2023/12/14 12:27:47;;;;;;;58.22;37.95;;;;;;;;;;5013725;28;20372;-60
2023/12/14 12:30:14;;;;;;;59.80;39.65;;;;;;;;;;5013400;28;20132;-60
2023/12/14 12:32:40;;;;;;;58.17;39.47;;;;;;;;;;5013361;28;20032;-60
2023/12/14 12:35:07;;;;;;;57.25;39.47;;;;;;;;;;5013344;28;20042;-59
2023/12/14 12:37:33;;;;;;;62.88;39.63;;;;;;;;;;5013374;28;20491;-59
2023/12/14 12:39:59;;;;;;;60.33;38.28;;;;;;;;;;5013478;28;20060;-59
2023/12/14 12:42:25;;;;;;;58.70;39.83;;;;;;;;;;5018579;28;20067;-59
2023/12/14 12:44:51;;;;;;;60.65;38.70;;;;;;;;;;5022156;28;20088;-59
2023/12/14 12:47:17;;;;;;;60.53;40.33;;;;;;;;;;5013145;28;20026;-59
2023/12/14 12:49:43;;;;;;;63.58;39.20;;;;;;;;;;5013082;28;20495;-58
2023/12/14 12:52:10;;;;;;;64.22;42.42;;;;;;;;;;5013220;28;20508;-59
2023/12/14 12:54:36;;;;;;;67.50;42.42;;;;;;;;;;5013290;28;20034;-59
2023/12/14 12:57:02;;;;;;;79.50;45.60;;;;;;;;;;5013485;28;20379;-59
2023/12/14 12:59:28;;;;;;;68.07;43.78;;;;;;;;;;5008193;28;20080;-59
2023/12/14 13:01:54;;;;;;;69.38;43.40;;;;;;;;;;5004842;28;20041;-59
2023/12/14 13:04:21;;;;;;;72.05;43.65;;;;;;;;;;5012881;28;20399;-59
2023/12/14 13:06:50;;;;;;;66.82;41.67;;;;;;;;;;5012857;28;20532;-60
2023/12/14 13:09:16;;;;;;;65.20;39.63;;;;;;;;;;5010248;28;20143;-59
2023/12/14 13:11:43;;;;;;;56.63;35.47;;;;;;;;;;5012868;28;20026;-59
2023/12/14 13:14:10;;;;;;;53.35;34.75;;;;;;;;;;5012494;28;20462;-59
2023/12/14 13:16:36;;;;;;;60.40;39.00;;;;;;;;;;5012691;28;20041;-59
2023/12/14 13:19:03;;;;;;;54.58;37.17;;;;;;;;;;5012739;28;20022;-59
2023/12/14 13:21:30;;;;;;;52.55;35.95;;;;;;;;;;5012495;28;20026;-59
2023/12/14 13:23:57;;;;;;;54.47;36.15;;;;;;;;;;5012569;28;20057;-60
2023/12/14 13:26:24;;;;;;;50.85;35.13;;;;;;;;;;5012389;28;20028;-73
2023/12/14 13:28:50;;;;;;;55.20;36.85;;;;;;;;;;5006107;28;20019;-68
2023/12/14 13:31:16;;;;;;;58.85;38.38;;;;;;;;;;5019484;28;20143;-60
2023/12/14 13:33:42;;;;;;;51.03;35.00;;;;;;;;;;5012537;28;20030;-61
2023/12/14 13:36:08;;;;;;;51.60;35.72;;;;;;;;;;5012143;28;20021;-64
2023/12/14 13:38:35;;;;;;;53.58;36.28;;;;;;;;;;5012410;28;20033;-63
2023/12/14 13:41:03;;;;;;;50.22;34.63;;;;;;;;;;5012454;28;20033;-62
2023/12/14 13:43:29;;;;;;;44.83;30.10;;;;;;;;;;5026010;28;20487;-62
2023/12/14 13:45:57;;;;;;;44.65;31.40;;;;;;;;;;4999947;28;20040;-63
2023/12/14 13:48:24;;;;;;;44.88;31.05;;;;;;;;;;5012379;28;20145;-66
2023/12/14 13:50:50;;;;;;;50.55;34.05;;;;;;;;;;5010717;28;20021;-62
2023/12/14 13:53:16;;;;;;;48.25;34.25;;;;;;;;;;5012115;28;20555;-62
2023/12/14 13:55:42;;;;;;;44.97;32.42;;;;;;;;;;5012150;28;20018;-63
2023/12/14 13:58:08;;;;;;;48.63;32.65;;;;;;;;;;5010831;28;20349;-61
2023/12/14 14:00:34;;;;;;;47.63;33.75;;;;;;;;;;5011867;28;20018;-63
2023/12/14 14:03:01;;;;;;;44.80;31.25;;;;;;;;;;5012131;28;20049;-59
2023/12/14 14:05:27;;;;;;;48.13;33.90;;;;;;;;;;5011749;28;20391;-57
2023/12/14 14:07:53;;;;;;;47.40;31.80;;;;;;;;;;5012030;28;20077;-57
2023/12/14 14:10:20;;;;;;;43.75;32.05;;;;;;;;;;5010640;28;20379;-55
2023/12/14 14:12:46;;;;;;;47.20;31.88;;;;;;;;;;5012082;28;20022;-64